ホワイトホース の空港の天気 - METARとTAF

ホワイトホース国際空港 ( CYXY / YXY ) - カナダ ユーコン準州ホワイトホース
飛行場実況気象(Metar)
観測時間02/17 15:00 PST (02/17 23:00 UTC)
風向・風速南南東 8m/s 瞬間風速11m/s
視程10km以上
天気現象低い地吹雪
少しの雲 雲底高度 1830m
全天の4割程度の雲 雲底高度 3660m
全天の8割程度の雲 雲底高度 6100m
気温-13℃
湿度61%
気圧1030hPa
METARCYXY 172300Z 16015G22KT 40SM DRSN FEW060 SCT120 BKN200 M13/M19 A3021 RMK SC1AC3CS4 SC TR SLP300
過去の天気等 Google飛行場航空写真 Wunderground天気予報

過去48時間のMETAR

飛行場予報(TAF)
発表時間: 2/17 09:39 PST (2/17 17:39 UTC)
予報対象時間: 17日10時 PST ~ 17日22時 PST
風向・風速南 8m/s
視程10km以上
少しの雲 雲底高度 3660m
全天の4割程度の雲 雲底高度 6710m
17日16時 PST ~ 17日18時 PST に徐々に
風向・風速南 11m/s 瞬間風速 16m/s
TAF CYXY 171739Z 1718/1806 17015KT P6SM FEW120 SCT220
BECMG 1800/1802 17022G32KT RMK NXT FCST BY 180000Z